Latest Weather Observations for Melbourne (Olympic Park)

IDV60901

Issued at 6:15 pm EDT Friday 24 October 2014 (issued every 10 minutes, with the page automatically refreshed every 10 minutes)

About weather observations | Map of Melbourne area stations | Latest observations for Melbourne area | Other Formats
Station Details ID: 086338 Name: MELBOURNE (OLYMPIC PARK) Lat: -37.83 Lon: 144.98 Height: 7.53 m
Data from the previous 72 hours. | See also: Recent months at Melbourne (Olympic Park)
Date/Time
EDT
Tmp

°C
App
Tmp
°C
Dew
Point
°C
Rel
Hum
%
Delta-T

°C
Wind Press
QNH
hPa
Press
MSL
hPa
Rain
since
9 am
mm
Dir
 
Spd
km/h
Gust
km/h
Spd
kts
Gust
kts
24/06:00pm 27.0 25.4 11.5 38 8.9 SSW 11 20 6 11 1009.7 1009.7 0.0
24/05:30pm 28.6 26.9 11.2 34 10.0 SSW 11 20 6 11 1009.5 1009.5 0.0
24/05:00pm 29.9 29.2 11.9 33 10.5 S 7 13 4 7 1009.3 1009.3 0.0
24/04:30pm 30.1 30.4 12.1 33 10.5 S 2 6 1 3 1009.4 1009.4 0.0
24/04:00pm 28.7 27.9 11.7 35 9.8 SSW 7 17 4 9 1009.7 1009.7 0.0
24/03:30pm 27.2 25.4 12.0 38 8.8 S 13 19 7 10 1010.0 1010.0 0.0
24/03:00pm 27.5 27.5 14.2 44 8.0 S 7 15 4 8 1009.9 1009.9 0.0
24/02:30pm 25.9 24.4 13.1 45 7.5 SSW 13 26 7 14 1010.3 1010.3 0.0
24/02:00pm 27.0 26.3 14.4 46 7.6 SSW 11 17 6 9 1010.4 1010.4 0.0
24/01:30pm 27.1 27.9 14.8 47 7.4 S 4 9 2 5 1010.4 1010.4 0.0
24/01:00pm 26.0 26.6 15.7 53 6.3 SSW 7 13 4 7 1010.7 1010.7 0.0
24/12:30pm 25.6 26.5 16.2 56 5.8 S 6 11 3 6 1010.9 1010.9 0.0
24/12:00pm 21.7 22.4 15.5 68 3.7 S 6 13 3 7 1011.3 1011.3 0.0
24/11:30am 21.0 20.3 15.3 70 3.4 SSW 13 20 7 11 1011.5 1011.5 0.0
24/11:00am 23.3 23.9 15.4 61 4.7 SW 6 9 3 5 1011.2 1011.2 0.0
24/10:30am 22.3 22.0 14.4 61 4.6 N 9 17 5 9 1011.5 1011.5 0.0
24/10:00am 21.3 22.8 14.7 66 3.9 CALM 0 7 0 4 1011.7 1011.7 0.0
24/09:30am 19.4 20.4 14.4 73 2.9 NNE 2 7 1 4 1011.6 1011.6 0.0
24/09:00am 17.8 18.9 14.5 81 1.9 NW 2 9 1 5 1012.1 1012.1 0.0
24/08:30am 16.5 16.2 14.3 87 1.3 NNE 9 11 5 6 1012.3 1012.3 0.0
24/08:00am 15.7 15.3 14.2 91 0.9 NE 9 13 5 7 1012.4 1012.4 0.0
24/07:30am 15.4 15.4 14.3 93 0.6 NNW 7 11 4 6 1012.4 1012.4 0.0
24/07:00am 15.4 16.4 14.4 94 0.6 N 2 11 1 6 1012.4 1012.4 0.0
24/06:30am 15.3 15.9 14.3 94 0.6 N 4 9 2 5 1012.3 1012.3 0.0
24/06:00am 15.2 15.2 14.2 94 0.6 N 7 13 4 7 1012.3 1012.3 0.0
24/05:30am 15.3 14.9 14.2 93 0.6 NNE 9 13 5 7 1012.3 1012.3 0.0
24/05:00am 15.5 15.7 14.2 92 0.7 NNW 6 7 3 4 1012.5 1012.5 0.0
24/04:30am 15.4 16.3 14.1 92 0.7 N 2 9 1 5 1012.5 1012.5 0.0
24/04:00am 15.6 16.2 14.3 92 0.7 N 4 9 2 5 1012.6 1012.6 0.0
24/03:30am 15.4 15.6 14.1 92 0.7 N 6 11 3 6 1012.7 1012.7 0.0
24/03:00am 15.5 16.8 14.2 92 0.7 CALM 0 0 0 0 1012.9 1012.9 0.0
24/02:30am 15.3 15.5 14.2 93 0.6 NNW 6 11 3 6 1013.4 1013.4 0.0
24/02:00am 15.2 14.8 14.1 93 0.6 NNW 9 13 5 7 1013.8 1013.8 0.0
24/01:30am 15.2 14.4 13.9 92 0.7 NNW 11 17 6 9 1014.1 1014.1 0.0
24/01:00am 15.4 15.9 14.1 92 0.7 NW 4 13 2 7 1014.4 1014.4 0.0
24/12:30am 15.4 15.3 13.9 91 0.8 N 7 11 4 6 1014.5 1014.5 0.0
24/12:00am 15.4 16.8 14.3 93 0.6 CALM 0 9 0 5 1014.9 1014.9 0.0
 
Date/Time
EDT
Tmp

°C
App
Tmp
°C
Dew
Point
°C
Rel
Hum
%
Delta-T

°C
Wind Press
QNH
hPa
Press
MSL
hPa
Rain
since
9 am
mm
Dir
 
Spd
km/h
Gust
km/h
Spd
kts
Gust
kts
23/11:30pm 15.2 16.5 14.1 93 0.6 CALM 0 0 0 0 1015.0 1015.0 0.0
23/11:00pm 15.6 16.8 13.8 89 1.0 CALM 0 0 0 0 1015.1 1015.1 0.0
23/10:30pm 16.1 17.4 14.1 88 1.1 CALM 0 0 0 0 1015.2 1015.2 0.0
23/10:00pm 16.6 17.9 14.1 85 1.4 CALM 0 0 0 0 1015.4 1015.4 0.0
23/09:30pm 17.1 18.0 14.0 82 1.8 SE 2 9 1 5 1015.2 1015.2 0.0
23/09:00pm 17.4 17.6 14.1 81 1.9 SE 6 13 3 7 1015.0 1015.0 0.0
23/08:30pm 17.8 17.8 14.1 79 2.1 SSE 7 13 4 7 1014.8 1014.8 0.0
23/08:00pm 18.4 18.4 14.3 77 2.4 SSE 7 15 4 8 1014.7 1014.7 0.0
23/07:30pm 19.1 18.9 14.6 75 2.6 SSE 9 19 5 10 1014.9 1014.9 0.0
23/07:00pm 20.0 18.7 14.8 72 3.0 SSE 15 24 8 13 1014.8 1014.8 0.0
23/06:30pm 20.9 20.1 15.0 69 3.5 SSE 13 26 7 14 1014.7 1014.7 0.0
23/06:00pm 21.5 20.4 15.3 68 3.7 SSE 15 20 8 11 1014.8 1014.8 0.0
23/05:30pm 22.0 22.3 16.1 69 3.6 SW 9 22 5 12 1014.9 1014.9 0.0
23/05:00pm 19.8 19.0 15.2 75 2.7 WSW 13 20 7 11 1015.3 1015.3 0.0
23/04:30pm 18.7 17.3 14.6 77 2.4 WSW 15 20 8 11 1015.8 1015.8 0.0
23/04:00pm 18.0 16.8 14.1 78 2.2 SW 13 26 7 14 1016.2 1016.2 0.0
23/03:30pm 18.0 16.9 14.3 79 2.1 SSW 13 20 7 11 1016.7 1016.7 0.0
23/03:00pm 17.6 16.4 13.9 79 2.1 SW 13 20 7 11 1017.1 1017.1 0.0
23/02:30pm 17.5 16.8 14.2 81 1.9 SW 11 20 6 11 1017.7 1017.7 0.0
23/02:00pm 17.1 16.2 13.6 80 2.0 SSW 11 20 6 11 1018.0 1018.0 0.0
23/01:30pm 16.4 15.4 13.3 82 1.7 SSW 11 20 6 11 1018.3 1018.3 0.0
23/01:00pm 16.3 15.0 13.8 85 1.4 SSW 13 20 7 11 1018.9 1018.9 0.0
23/12:30pm 15.7 14.8 13.7 88 1.1 SSW 11 17 6 9 1019.2 1019.2 0.0
23/12:00pm 15.5 15.0 13.7 89 1.0 SSW 9 17 5 9 1019.6 1019.6 0.0
23/11:30am 15.4 14.8 13.4 88 1.1 SSW 9 17 5 9 1019.8 1019.8 0.0
23/11:00am 15.4 15.2 13.6 89 1.0 SSW 7 13 4 7 1020.2 1020.2 0.0
23/10:30am 15.5 14.9 13.5 88 1.1 SSW 9 17 5 9 1020.3 1020.3 0.0
23/10:00am 15.2 14.9 13.2 88 1.1 SSW 7 13 4 7 1020.3 1020.3 0.0
23/09:30am 14.8 14.8 13.7 93 0.6 SSW 6 13 3 7 1020.6 1020.6 0.0
23/09:00am 14.9 14.9 14.1 95 0.4 SSW 7 15 4 8 1020.5 1020.5 0.0
23/08:30am 15.0 14.4 13.5 91 0.8 SSE 9 15 5 8 1020.5 1020.5 0.0
23/08:00am 15.3 15.0 13.3 88 1.1 SSE 7 17 4 9 1020.2 1020.2 0.0
23/07:30am 15.2 14.5 13.2 88 1.1 S 9 15 5 8 1020.1 1020.1 0.0
23/07:00am 15.3 14.8 13.7 90 0.9 S 9 20 5 11 1019.7 1019.7 0.0
23/06:30am 15.3 15.4 13.8 91 0.8 S 6 11 3 6 1019.5 1019.5 0.0
23/06:00am 15.2 14.4 14.1 93 0.6 SSW 11 19 6 10 1019.2 1019.2 0.0
23/05:30am 15.2 14.8 14.1 93 0.6 S 9 20 5 11 1018.8 1018.8 0.0
23/05:00am 15.0 15.2 14.2 95 0.5 WSW 6 13 3 7 1018.6 1018.6 0.0
23/04:30am 14.9 14.9 14.3 96 0.3 SW 7 15 4 8 1018.5 1018.5 0.0
23/04:00am 14.9 14.8 13.9 94 0.6 SW 7 17 4 9 1018.4 1018.4 0.0
23/03:30am 15.0 14.9 14.0 94 0.6 SSW 7 13 4 7 1018.7 1018.7 0.0
23/03:00am 15.0 14.5 13.9 93 0.6 SSW 9 15 5 8 1019.1 1019.1 0.0
23/02:30am 15.1 14.6 13.8 92 0.7 SSW 9 17 5 9 1019.2 1019.2 0.0
23/02:00am 15.2 14.4 13.9 92 0.7 SW 11 20 6 11 1019.3 1019.3 0.0
23/01:30am 15.7 15.3 14.2 91 0.9 SSW 9 20 5 11 1019.6 1019.6 0.0
23/01:00am 15.5 15.7 14.2 92 0.7 SW 6 11 3 6 1018.8 1018.8 0.0
23/12:30am 15.7 15.7 14.1 90 0.9 S 7 11 4 6 1018.9 1018.9 0.0
23/12:00am 15.7 15.3 14.2 91 0.8 SSW 9 20 5 11 1019.1 1019.1 0.0
 
Date/Time
EDT
Tmp

°C
App
Tmp
°C
Dew
Point
°C
Rel
Hum
%
Delta-T

°C
Wind Press
QNH
hPa
Press
MSL
hPa
Rain
since
9 am
mm
Dir
 
Spd
km/h
Gust
km/h
Spd
kts
Gust
kts
22/11:30pm 15.5 14.3 14.0 91 0.8 SSW 13 20 7 11 1018.7 1018.7 0.0
22/11:00pm 15.7 14.2 14.1 90 0.9 S 15 24 8 13 1018.6 1018.6 0.0
22/10:30pm 16.6 15.1 14.1 85 1.4 SSW 15 30 8 16 1018.8 1018.8 0.0
22/10:00pm 18.8 17.7 13.2 70 3.2 SSW 11 24 6 13 1018.4 1018.4 0.0
22/09:30pm 19.6 17.9 13.5 68 3.5 SW 15 28 8 15 1018.0 1018.0 0.0
22/09:00pm 20.9 18.6 13.1 61 4.4 SW 17 26 9 14 1016.9 1016.9 0.0
22/08:55pm 21.5 19.1 12.6 57 5.0 SW 17 28 9 15 1016.8 1016.8 0.0
22/08:30pm 26.5 25.5 12.2 41 8.2 WSW 9 17 5 9 1015.5 1015.5 0.0
22/08:00pm 27.9 25.8 11.0 35 9.6 NNW 13 24 7 13 1014.7 1014.7 0.0
22/07:30pm 28.8 26.3 10.9 33 10.2 N 15 22 8 12 1014.4 1014.4 0.0
22/07:00pm 29.4 26.7 10.5 31 10.7 N 15 20 8 11 1013.9 1013.9 0.0
22/06:30pm 29.9 26.3 9.9 29 11.3 N 19 28 10 15 1013.8 1013.8 0.0
22/06:00pm 29.9 27.0 10.9 31 10.9 N 17 32 9 17 1014.1 1014.1 0.0
22/05:30pm 29.8 26.3 10.9 31 10.8 N 20 32 11 17 1014.4 1014.4 0.0
22/05:00pm 30.3 27.0 10.8 30 11.2 NNW 19 32 10 17 1014.5 1014.5 0.0
22/04:30pm 30.2 26.8 10.7 30 11.2 N 19 30 10 16 1014.5 1014.5 0.0
22/04:00pm 30.9 27.6 10.8 29 11.5 N 19 28 10 15 1014.7 1014.7 0.0
22/03:30pm 31.3 28.1 11.1 29 11.7 NNW 19 33 10 18 1014.8 1014.8 0.0
22/03:00pm 31.5 28.2 10.8 28 11.9 N 19 26 10 14 1015.2 1015.2 0.0
22/02:30pm 31.4 28.7 11.7 29 11.5 N 17 28 9 15 1015.6 1015.6 0.0
22/02:00pm 30.6 28.0 12.0 32 10.9 N 17 28 9 15 1016.0 1016.0 0.0
22/01:30pm 29.4 25.6 11.0 32 10.5 N 22 30 12 16 1016.6 1016.6 0.0
22/01:00pm 28.2 24.3 10.9 34 9.8 N 22 33 12 18 1016.9 1016.9 0.0
22/12:30pm 27.9 23.7 11.0 35 9.6 N 24 35 13 19 1017.4 1017.4 0.0
22/12:00pm 26.9 23.2 11.4 38 8.8 N 22 35 12 19 1017.8 1017.8 0.0
22/11:30am 25.8 22.0 11.2 40 8.2 N 22 35 12 19 1018.5 1018.5 0.0
22/11:00am 24.7 20.3 11.6 44 7.4 N 26 37 14 20 1019.0 1019.0 0.0
22/10:30am 23.9 19.7 11.2 44 7.1 N 24 43 13 23 1019.3 1019.3 0.0
22/10:00am 22.8 17.9 11.2 48 6.4 N 28 46 15 25 1019.4 1019.4 0.0
22/09:30am 22.1 17.9 11.2 50 6.0 N 24 43 13 23 1019.4 1019.4 0.0
22/09:00am 21.1 17.0 11.4 54 5.4 N 24 43 13 23 1019.5 1019.5 0.0
22/08:30am 20.4 16.6 11.1 55 5.1 N 22 48 12 26 1019.5 1019.5 0.0
22/08:00am 19.4 16.2 11.2 59 4.5 N 19 33 10 18 1019.7 1019.7 0.0
22/07:30am 18.9 15.5 10.7 59 4.4 N 19 28 10 15 1019.7 1019.7 0.0
22/07:00am 18.4 15.8 10.7 61 4.1 N 15 26 8 14 1019.7 1019.7 0.0
22/06:30am 18.3 15.7 10.7 61 4.1 N 15 24 8 13 1019.7 1019.7 0.0
22/06:00am 18.4 15.8 10.7 61 4.1 N 15 20 8 11 1019.6 1019.6 0.0
22/05:30am 17.9 16.1 10.8 63 3.8 N 11 20 6 11 1019.5 1019.5 0.0
22/05:00am 16.9 15.2 11.2 69 3.1 NNE 11 15 6 8 1019.4 1019.4 0.0
22/04:30am 16.3 14.3 11.5 73 2.6 NNE 13 15 7 8 1019.4 1019.4 0.0
22/04:00am 16.6 15.0 11.5 72 2.8 NNE 11 15 6 8 1019.6 1019.6 0.0
22/03:30am 16.5 15.1 12.3 76 2.3 NNE 11 13 6 7 1019.9 1019.9 0.0
22/03:00am 16.4 15.1 12.6 78 2.1 NNE 11 13 6 7 1020.2 1020.2 0.0
22/02:30am 15.6 16.5 12.9 84 1.5 CALM 0 6 0 3 1020.5 1020.5 0.0
22/02:00am 16.7 16.7 12.5 76 2.3 N 4 13 2 7 1020.6 1020.6 0.0
22/01:30am 17.4 16.5 12.5 73 2.7 NNE 9 11 5 6 1020.9 1020.9 0.0
22/01:00am 17.8 17.3 12.5 71 2.9 N 7 9 4 5 1021.3 1021.3 0.0
22/12:30am 18.3 17.9 12.3 68 3.3 NNE 6 9 3 5 1021.7 1021.7 0.0
22/12:00am 17.8 17.8 12.5 71 2.9 N 4 9 2 5 1022.1 1022.1 0.0
 
Date/Time
EDT
Tmp

°C
App
Tmp
°C
Dew
Point
°C
Rel
Hum
%
Delta-T

°C
Wind Press
QNH
hPa
Press
MSL
hPa
Rain
since
9 am
mm
Dir
 
Spd
km/h
Gust
km/h
Spd
kts
Gust
kts
21/11:30pm 18.4 18.3 13.3 72 2.9 ENE 6 9 3 5 1022.3 1022.3 0.0
21/11:00pm 17.9 19.1 13.8 77 2.3 CALM 0 0 0 0 1022.5 1022.5 0.0
21/10:30pm 19.8 20.1 13.3 66 3.7 NE 4 9 2 5 1022.6 1022.6 0.0
21/10:00pm 18.6 19.8 13.7 73 2.8 CALM 0 0 0 0 1022.6 1022.6 0.0
21/09:30pm 19.9 20.9 13.1 65 3.9 CALM 0 0 0 0 1022.5 1022.5 0.0
21/09:00pm 21.1 21.5 12.5 58 4.8 ESE 2 7 1 4 1022.3 1022.3 0.0
21/08:30pm 21.9 21.8 12.2 54 5.5 SSE 4 9 2 5 1022.1 1022.1 0.0
21/08:00pm 22.8 21.9 11.5 49 6.3 ESE 7 13 4 7 1022.1 1022.1 0.0
21/07:30pm 23.8 22.6 11.5 46 6.9 ESE 9 15 5 8 1021.9 1021.9 0.0
21/07:00pm 24.7 22.6 11.3 43 7.5 SE 13 20 7 11 1021.8 1021.8 0.0
21/06:30pm 25.8 24.3 11.9 42 7.9 SSE 11 17 6 9 1021.7 1021.7 0.0

Latest Capital City Observations: Canberra | Sydney | Melbourne | Brisbane | Adelaide | Perth | Hobart | Darwin

Other Formats:

Comma delimited format used in spreadsheet applications
http://www.bom.gov.au/fwo/IDV60901/IDV60901.95936.axf

JavaScript Object Notation format (JSON) in row-major order
http://www.bom.gov.au/fwo/IDV60901/IDV60901.95936.json